createdAt,value
2022-12-24T00:00:12.695Z,52.88
2022-12-24T00:02:45.554Z,49.95
2022-12-24T00:05:13.343Z,43.40
2022-12-24T00:07:40.658Z,42.30
2022-12-24T00:10:09.160Z,45.00
2022-12-24T00:12:36.697Z,38.00
2022-12-24T00:15:05.686Z,41.13
2022-12-24T00:17:33.031Z,47.30
2022-12-24T00:20:00.371Z,43.72
2022-12-24T00:22:27.838Z,43.95
2022-12-24T00:24:55.130Z,43.92
2022-12-24T00:27:22.418Z,42.15
2022-12-24T00:29:50.675Z,34.15
2022-12-24T00:32:17.985Z,43.88
2022-12-24T00:34:45.259Z,46.30
2022-12-24T00:37:12.620Z,43.25
2022-12-24T00:39:39.923Z,46.20
2022-12-24T00:42:07.536Z,39.08
2022-12-24T00:44:34.789Z,52.28
2022-12-24T00:47:05.525Z,52.33
2022-12-24T00:49:37.338Z,38.45
2022-12-24T00:52:04.784Z,45.50
2022-12-24T00:54:32.404Z,38.10
2022-12-24T00:56:59.796Z,46.15
2022-12-24T00:59:27.057Z,37.78
2022-12-24T01:01:54.786Z,35.90
2022-12-24T01:04:40.968Z,39.97
2022-12-24T01:07:09.396Z,52.67
2022-12-24T01:09:36.759Z,47.40
2022-12-24T01:12:04.381Z,50.20
2022-12-24T01:14:31.616Z,46.40
2022-12-24T01:16:58.883Z,44.38
2022-12-24T01:19:26.202Z,50.50
2022-12-24T01:21:53.823Z,48.92
2022-12-24T01:24:21.241Z,43.33
2022-12-24T01:26:48.479Z,44.03
2022-12-24T01:29:16.224Z,48.75
2022-12-24T01:31:43.833Z,51.35
2022-12-24T01:34:11.184Z,48.40
2022-12-24T01:36:38.539Z,44.72
2022-12-24T01:39:05.885Z,40.22
2022-12-24T01:41:52.012Z,42.17
2022-12-24T01:44:21.399Z,39.88
2022-12-24T01:46:50.654Z,44.83
2022-12-24T01:49:18.379Z,46.47
2022-12-24T01:51:46.323Z,43.35
2022-12-24T01:54:22.618Z,44.67
2022-12-24T01:56:57.295Z,46.90
2022-12-24T01:59:24.853Z,43.45
2022-12-24T02:01:53.664Z,39.92
2022-12-24T02:04:41.086Z,56.65
2022-12-24T02:07:08.364Z,40.22
2022-12-24T02:09:36.765Z,48.38
2022-12-24T02:12:04.826Z,46.90
2022-12-24T02:14:32.813Z,52.05
2022-12-24T02:17:06.358Z,48.20
2022-12-24T02:19:39.663Z,47.63
2022-12-24T02:22:13.049Z,44.08
2022-12-24T02:24:46.227Z,49.90
2022-12-24T02:27:26.367Z,50.22
2022-12-24T02:30:16.783Z,50.75
2022-12-24T02:33:21.059Z,39.53
2022-12-24T02:35:58.567Z,48.58
2022-12-24T02:38:31.288Z,54.30
2022-12-24T02:41:03.575Z,42.50
2022-12-24T02:43:37.304Z,46.05
2022-12-24T02:46:12.538Z,52.80
2022-12-24T02:48:42.073Z,41.47
2022-12-24T02:51:10.770Z,40.10
2022-12-24T02:53:39.222Z,49.33
2022-12-24T02:56:30.352Z,46.80
2022-12-24T02:59:06.828Z,49.65
2022-12-24T03:02:03.601Z,46.17
2022-12-24T03:04:45.826Z,47.10
2022-12-24T03:07:25.016Z,44.45
2022-12-24T03:10:15.325Z,46.70
2022-12-24T03:15:15.269Z,48.65
2022-12-24T03:17:44.182Z,47.53
2022-12-24T03:20:13.768Z,43.92
2022-12-24T03:22:41.460Z,43.97
2022-12-24T03:25:08.809Z,47.17
2022-12-24T03:27:36.592Z,34.90
2022-12-24T03:30:10.375Z,41.85
2022-12-24T03:32:38.513Z,47.15
2022-12-24T03:35:08.171Z,47.50
2022-12-24T03:37:36.230Z,39.10
2022-12-24T03:40:05.437Z,62.63
2022-12-24T03:42:33.008Z,50.92
2022-12-24T03:45:00.409Z,41.72
2022-12-24T03:47:27.698Z,43.85
2022-12-24T03:49:55.007Z,45.35
2022-12-24T03:52:22.343Z,47.58
2022-12-24T03:54:49.564Z,49.45
2022-12-24T03:57:16.983Z,51.47
2022-12-24T03:59:44.474Z,46.03
2022-12-24T04:02:12.025Z,46.38
2022-12-24T04:04:39.419Z,51.25
2022-12-24T04:07:07.065Z,50.83
2022-12-24T04:09:34.435Z,51.30
2022-12-24T04:12:01.697Z,52.83
2022-12-24T04:14:29.073Z,47.28
2022-12-24T04:16:56.353Z,44.85
2022-12-24T04:19:23.694Z,41.85
2022-12-24T04:21:51.141Z,45.88
2022-12-24T04:24:18.532Z,42.75
2022-12-24T04:26:45.846Z,43.72
2022-12-24T04:29:13.191Z,49.22
2022-12-24T04:31:40.548Z,46.25
2022-12-24T04:34:08.522Z,47.25
2022-12-24T04:36:35.918Z,43.95
2022-12-24T04:39:03.368Z,40.70
2022-12-24T04:41:30.700Z,49.63
2022-12-24T04:43:58.722Z,51.00
2022-12-24T04:46:30.992Z,47.65
2022-12-24T04:48:58.866Z,45.30
2022-12-24T04:51:27.145Z,49.25
2022-12-24T04:53:55.919Z,42.08
2022-12-24T04:56:25.289Z,45.20
2022-12-24T04:58:52.661Z,44.47
2022-12-24T05:01:22.934Z,47.88
2022-12-24T05:03:51.136Z,55.22
2022-12-24T05:06:20.747Z,48.15
2022-12-24T05:08:48.298Z,41.92
2022-12-24T05:11:16.135Z,46.83
2022-12-24T05:13:47.525Z,46.97
2022-12-24T05:16:16.441Z,49.72
2022-12-24T05:18:43.983Z,43.05
2022-12-24T05:21:13.770Z,49.67
2022-12-24T05:23:59.797Z,53.15
2022-12-24T05:26:30.960Z,49.80
2022-12-24T05:28:59.547Z,45.10
2022-12-24T05:31:28.677Z,53.42
2022-12-24T05:33:56.867Z,44.13
2022-12-24T05:36:24.655Z,43.22
2022-12-24T05:38:52.299Z,44.65
2022-12-24T05:41:19.621Z,49.00
2022-12-24T05:43:47.027Z,45.58
2022-12-24T05:46:16.241Z,56.85
2022-12-24T05:48:43.608Z,53.95
2022-12-24T05:51:12.987Z,50.83
2022-12-24T05:53:40.797Z,51.73
2022-12-24T05:56:11.020Z,50.50
2022-12-24T06:01:06.480Z,49.78
2022-12-24T06:03:34.185Z,43.83
2022-12-24T06:06:03.154Z,41.97
2022-12-24T06:08:31.419Z,48.58
2022-12-24T06:11:00.950Z,46.33
2022-12-24T06:13:28.982Z,46.78
2022-12-24T06:15:57.869Z,42.30
2022-12-24T06:18:25.600Z,43.72
2022-12-24T06:20:54.850Z,46.33
2022-12-24T06:23:22.634Z,56.50
2022-12-24T06:25:50.498Z,45.05
2022-12-24T06:28:18.077Z,39.10
2022-12-24T06:30:49.806Z,49.25
2022-12-24T06:33:17.471Z,51.15
2022-12-24T06:35:46.072Z,42.75
2022-12-24T06:38:14.250Z,39.47
2022-12-24T06:40:43.426Z,34.30
2022-12-24T06:43:11.430Z,38.65
2022-12-24T06:45:38.792Z,37.78
2022-12-24T06:48:06.612Z,40.78
2022-12-24T06:50:34.341Z,35.53
2022-12-24T06:53:01.662Z,24.70
2022-12-24T06:55:28.991Z,34.35
2022-12-24T06:57:56.299Z,34.78
2022-12-24T07:00:23.621Z,30.17
2022-12-24T07:02:51.039Z,24.50
2022-12-24T07:05:18.491Z,24.88
2022-12-24T07:07:46.078Z,27.60
2022-12-24T07:10:16.150Z,24.70
2022-12-24T07:12:43.945Z,25.85
2022-12-24T07:15:12.013Z,31.20
2022-12-24T07:17:39.502Z,26.52
2022-12-24T07:20:08.627Z,25.20
2022-12-24T07:22:36.011Z,28.05
2022-12-24T07:25:03.329Z,19.50
2022-12-24T07:27:30.651Z,20.67
2022-12-24T07:29:57.971Z,26.85
2022-12-24T07:32:25.228Z,26.33
2022-12-24T07:34:52.478Z,24.33
2022-12-24T07:37:19.856Z,31.88
2022-12-24T07:39:47.104Z,18.58
2022-12-24T07:42:14.601Z,24.25
2022-12-24T07:44:41.881Z,25.65
2022-12-24T07:47:09.243Z,23.95
2022-12-24T07:49:37.115Z,20.45
2022-12-24T07:52:04.828Z,29.65
2022-12-24T07:54:32.216Z,18.30
2022-12-24T07:56:59.584Z,27.15
2022-12-24T07:59:27.043Z,24.38
2022-12-24T08:01:54.449Z,21.00
2022-12-24T08:04:21.906Z,31.40
2022-12-24T08:06:49.143Z,27.13
2022-12-24T08:09:16.964Z,31.25
2022-12-24T08:11:51.344Z,31.65
2022-12-24T08:14:20.042Z,29.13
2022-12-24T08:16:47.419Z,28.38
2022-12-24T08:19:14.782Z,22.85
2022-12-24T08:21:42.118Z,16.35
2022-12-24T08:24:09.371Z,20.00
2022-12-24T08:26:36.669Z,22.33
2022-12-24T08:29:04.714Z,17.00
2022-12-24T08:31:36.687Z,24.75
2022-12-24T08:34:05.556Z,23.85
2022-12-24T08:36:33.418Z,33.10
2022-12-24T08:39:03.617Z,31.00
2022-12-24T08:41:32.102Z,29.25
2022-12-24T08:43:59.484Z,26.05
2022-12-24T08:46:26.857Z,21.50
2022-12-24T08:48:54.264Z,15.43
2022-12-24T08:51:21.542Z,30.88
2022-12-24T08:53:49.079Z,24.30
2022-12-24T08:56:16.791Z,21.95
2022-12-24T08:58:44.188Z,23.50
2022-12-24T09:01:14.691Z,24.38
2022-12-24T09:03:42.562Z,18.40
2022-12-24T09:06:10.417Z,32.65
2022-12-24T09:08:38.197Z,25.45
2022-12-24T09:11:15.329Z,29.40
2022-12-24T09:13:43.236Z,18.77
2022-12-24T09:16:11.788Z,19.42
2022-12-24T09:18:39.656Z,21.27
2022-12-24T09:21:14.495Z,28.60
2022-12-24T09:23:43.655Z,21.40
2022-12-24T09:26:15.327Z,22.63
2022-12-24T09:28:42.728Z,19.35
2022-12-24T09:31:10.901Z,19.38
2022-12-24T09:33:39.522Z,16.73
2022-12-24T09:36:09.818Z,18.38
2022-12-24T09:38:38.409Z,22.80
2022-12-24T09:41:24.743Z,18.67
2022-12-24T09:44:03.479Z,25.60
2022-12-24T09:46:35.569Z,27.08
2022-12-24T09:49:08.896Z,25.52
2022-12-24T09:51:47.768Z,27.92
2022-12-24T09:54:22.247Z,34.00
2022-12-24T09:56:50.646Z,40.85
2022-12-24T09:59:21.959Z,38.00
2022-12-24T10:01:51.196Z,23.30
2022-12-24T10:04:21.252Z,17.63
2022-12-24T10:06:54.637Z,16.83
2022-12-24T10:09:21.870Z,24.08
2022-12-24T10:12:14.425Z,23.83
2022-12-24T10:14:50.692Z,21.20
2022-12-24T10:17:36.471Z,20.27
2022-12-24T10:20:18.971Z,21.63
2022-12-24T10:22:52.102Z,18.08
2022-12-24T10:25:34.771Z,17.80
2022-12-24T10:28:06.028Z,25.13
2022-12-24T10:30:34.253Z,36.50
2022-12-24T10:33:01.830Z,20.38
2022-12-24T10:35:40.606Z,23.10
2022-12-24T10:38:08.622Z,11.38
2022-12-24T10:40:49.984Z,21.95
2022-12-24T10:43:25.270Z,21.95
2022-12-24T10:46:04.425Z,22.98
2022-12-24T10:48:37.454Z,22.58
2022-12-24T10:51:07.827Z,19.80
2022-12-24T10:53:38.518Z,24.33
2022-12-24T10:56:08.211Z,17.73
2022-12-24T10:58:36.047Z,21.77
2022-12-24T11:01:03.875Z,19.95
2022-12-24T11:03:34.554Z,18.17
2022-12-24T11:06:14.724Z,16.75
2022-12-24T11:08:44.096Z,14.70
2022-12-24T11:11:13.861Z,14.00
2022-12-24T11:13:52.681Z,16.95
2022-12-24T11:16:31.094Z,18.40
2022-12-24T11:19:01.731Z,13.73
2022-12-24T11:21:53.520Z,15.80
2022-12-24T11:24:28.087Z,14.25
2022-12-24T11:26:55.407Z,16.02
2022-12-24T11:29:27.993Z,18.83
2022-12-24T11:32:18.582Z,15.93
2022-12-24T11:34:46.080Z,22.98
2022-12-24T11:37:23.244Z,15.98
2022-12-24T11:39:53.314Z,16.58
2022-12-24T11:42:32.865Z,14.80
2022-12-24T11:45:02.817Z,18.73
2022-12-24T11:47:39.053Z,21.65
2022-12-24T11:50:20.633Z,11.60
2022-12-24T11:52:50.435Z,16.38
2022-12-24T11:55:23.367Z,12.45
2022-12-24T11:57:57.374Z,13.88
2022-12-24T12:00:25.689Z,16.83
2022-12-24T12:02:54.736Z,17.92
2022-12-24T12:05:25.544Z,17.83
2022-12-24T12:07:58.553Z,15.38
2022-12-24T12:10:29.103Z,13.60
2022-12-24T12:13:09.883Z,16.20
2022-12-24T12:16:13.194Z,17.45
2022-12-24T12:21:20.908Z,20.73
2022-12-24T12:23:55.064Z,15.82
2022-12-24T12:26:28.559Z,18.00
2022-12-24T12:29:02.245Z,16.70
2022-12-24T12:31:36.610Z,20.50
2022-12-24T12:34:17.446Z,24.55
2022-12-24T12:37:18.519Z,19.92
2022-12-24T12:39:45.789Z,20.27
2022-12-24T12:42:30.891Z,16.92
2022-12-24T12:45:17.096Z,14.68
2022-12-24T12:48:03.314Z,14.35
2022-12-24T12:50:35.791Z,20.23
2022-12-24T12:53:40.510Z,15.30
2022-12-24T12:56:44.780Z,17.88
2022-12-24T12:59:27.479Z,19.50
2022-12-24T13:02:02.940Z,12.52
2022-12-24T13:04:48.483Z,21.20
2022-12-24T13:07:30.343Z,21.02
2022-12-24T13:10:26.042Z,18.55
2022-12-24T13:12:59.963Z,31.45
2022-12-24T13:15:48.902Z,18.23
2022-12-24T13:18:28.233Z,20.67
2022-12-24T13:20:55.605Z,16.17
2022-12-24T13:23:25.466Z,28.55
2022-12-24T13:25:54.989Z,21.02
2022-12-24T13:28:22.185Z,21.55
2022-12-24T13:31:01.769Z,13.25
2022-12-24T13:33:38.457Z,17.33
2022-12-24T13:36:07.979Z,18.77
2022-12-24T13:38:48.845Z,20.88
2022-12-24T13:41:39.560Z,15.32
2022-12-24T13:44:11.116Z,17.10
2022-12-24T13:47:01.247Z,18.27
2022-12-24T13:49:28.512Z,18.50
2022-12-24T13:52:28.865Z,15.32
2022-12-24T13:57:29.361Z,46.97
2022-12-24T14:00:22.757Z,23.45
2022-12-24T14:02:56.340Z,18.48
2022-12-24T14:05:34.803Z,18.17
2022-12-24T14:08:04.958Z,16.77
2022-12-24T14:13:03.603Z,21.30
2022-12-24T14:16:01.778Z,23.08
2022-12-24T14:18:29.585Z,21.65
2022-12-24T14:20:58.134Z,15.20
2022-12-24T14:23:54.017Z,19.15
2022-12-24T14:26:25.652Z,13.93
2022-12-24T14:28:59.517Z,19.45
2022-12-24T14:31:27.005Z,16.50
2022-12-24T14:34:07.319Z,14.48
2022-12-24T14:36:35.747Z,12.85
2022-12-24T14:39:06.810Z,15.25
2022-12-24T14:41:57.774Z,24.02
2022-12-24T14:44:49.656Z,27.55
2022-12-24T14:47:34.508Z,25.05
2022-12-24T14:50:37.767Z,17.70
2022-12-24T14:53:40.386Z,24.00
2022-12-24T14:56:18.821Z,28.02
2022-12-24T14:58:46.980Z,26.77
2022-12-24T15:01:23.512Z,16.02
2022-12-24T15:04:09.283Z,18.77
2022-12-24T15:06:57.719Z,14.63
2022-12-24T15:09:31.066Z,12.40
2022-12-24T15:12:00.658Z,17.13
2022-12-24T15:14:29.833Z,16.50
2022-12-24T15:16:59.920Z,15.57
2022-12-24T15:21:56.564Z,17.13
2022-12-24T15:24:28.949Z,14.50
2022-12-24T15:26:56.544Z,17.75
2022-12-24T15:29:32.312Z,13.98
2022-12-24T15:32:01.255Z,15.55
2022-12-24T15:34:35.966Z,14.88
2022-12-24T15:37:11.008Z,14.40
2022-12-24T15:39:39.503Z,22.50
2022-12-24T15:42:14.830Z,24.38
2022-12-24T15:45:04.575Z,38.42
2022-12-24T15:47:38.331Z,23.95
2022-12-24T15:50:16.319Z,16.38
2022-12-24T15:52:44.368Z,37.63
2022-12-24T15:55:29.318Z,19.15
2022-12-24T15:57:56.671Z,13.95
2022-12-24T16:00:30.935Z,21.45
2022-12-24T16:03:19.059Z,14.25
2022-12-24T16:05:47.116Z,23.55
2022-12-24T16:08:14.334Z,18.75
2022-12-24T16:10:43.686Z,21.75
2022-12-24T16:13:30.050Z,14.60
2022-12-24T16:16:05.785Z,15.50
2022-12-24T16:18:36.147Z,15.52
2022-12-24T16:21:04.874Z,14.55
2022-12-24T16:23:45.141Z,19.70
2022-12-24T16:28:39.430Z,15.25
2022-12-24T16:31:06.865Z,11.27
2022-12-24T16:33:34.275Z,23.92
2022-12-24T16:36:01.622Z,14.07
2022-12-24T16:38:48.884Z,17.13
2022-12-24T16:41:16.185Z,24.52
2022-12-24T16:43:49.520Z,31.23
2022-12-24T16:46:17.815Z,32.95
2022-12-24T16:48:48.079Z,22.27
2022-12-24T16:53:42.754Z,22.67
2022-12-24T16:56:10.038Z,18.33
2022-12-24T16:58:38.308Z,23.50
2022-12-24T17:01:09.434Z,19.83
2022-12-24T17:03:36.995Z,21.15
2022-12-24T17:06:06.459Z,23.52
2022-12-24T17:08:33.765Z,20.17
2022-12-24T17:11:01.179Z,18.08
2022-12-24T17:13:28.662Z,18.08
2022-12-24T17:15:56.079Z,17.20
2022-12-24T17:18:23.419Z,34.28
2022-12-24T17:20:59.444Z,22.73
2022-12-24T17:23:27.645Z,23.58
2022-12-24T17:25:55.069Z,19.67
2022-12-24T17:28:22.618Z,24.23
2022-12-24T17:30:50.198Z,20.00
2022-12-24T17:33:17.563Z,25.60
2022-12-24T17:35:46.443Z,24.88
2022-12-24T17:38:13.945Z,17.15
2022-12-24T17:40:41.168Z,20.00
2022-12-24T17:43:08.564Z,20.02
2022-12-24T17:45:41.114Z,20.85
2022-12-24T17:48:08.834Z,19.85
2022-12-24T17:50:39.926Z,19.45
2022-12-24T17:53:07.680Z,18.77
2022-12-24T17:55:39.943Z,22.75
2022-12-24T17:58:08.064Z,20.33
2022-12-24T18:00:35.568Z,22.27
2022-12-24T18:03:03.107Z,16.17
2022-12-24T18:05:30.425Z,18.60
2022-12-24T18:07:58.308Z,18.90
2022-12-24T18:10:25.578Z,18.65
2022-12-24T18:12:52.908Z,17.70
2022-12-24T18:15:22.392Z,19.45
2022-12-24T18:17:56.282Z,21.63
2022-12-24T18:20:23.634Z,23.67
2022-12-24T18:22:51.023Z,18.00
2022-12-24T18:25:20.233Z,19.92
2022-12-24T18:27:47.762Z,21.98
2022-12-24T18:30:15.499Z,25.38
2022-12-24T18:32:42.739Z,28.08
2022-12-24T18:35:10.739Z,28.77
2022-12-24T18:37:38.000Z,19.27
2022-12-24T18:40:06.111Z,19.92
2022-12-24T18:42:33.523Z,19.48
2022-12-24T18:45:01.325Z,19.85
2022-12-24T18:47:31.408Z,21.48
2022-12-24T18:50:01.534Z,20.00
2022-12-24T18:52:32.178Z,17.42
2022-12-24T18:55:02.725Z,45.10
2022-12-24T18:57:30.799Z,36.13
2022-12-24T18:59:58.118Z,27.95
2022-12-24T19:02:25.687Z,38.15
2022-12-24T19:04:53.013Z,23.40
2022-12-24T19:07:20.274Z,18.35
2022-12-24T19:09:48.443Z,21.58
2022-12-24T19:12:16.638Z,26.15
2022-12-24T19:14:43.934Z,19.73
2022-12-24T19:17:11.495Z,20.05
2022-12-24T19:19:38.862Z,23.17
2022-12-24T19:22:06.311Z,22.05
2022-12-24T19:24:34.152Z,22.73
2022-12-24T19:27:01.537Z,25.77
2022-12-24T19:29:28.889Z,25.52
2022-12-24T19:31:56.787Z,21.02
2022-12-24T19:34:24.121Z,19.67
2022-12-24T19:36:51.493Z,23.58
2022-12-24T19:39:18.893Z,19.83
2022-12-24T19:41:46.296Z,20.63
2022-12-24T19:44:13.566Z,19.65
2022-12-24T19:46:40.982Z,18.45
2022-12-24T19:49:11.061Z,19.95
2022-12-24T19:51:38.663Z,24.00
2022-12-24T19:54:06.382Z,22.33
2022-12-24T19:56:33.810Z,21.52
2022-12-24T19:59:01.488Z,18.63
2022-12-24T20:01:31.243Z,19.35
2022-12-24T20:03:59.222Z,15.50
2022-12-24T20:06:32.195Z,18.55
2022-12-24T20:09:05.343Z,18.05
2022-12-24T20:11:34.301Z,17.95
2022-12-24T20:14:03.543Z,21.58
2022-12-24T20:16:31.361Z,20.80
2022-12-24T20:19:03.893Z,16.67
2022-12-24T20:21:32.899Z,19.60
2022-12-24T20:24:00.347Z,16.35
2022-12-24T20:26:29.216Z,19.13
2022-12-24T20:28:56.681Z,15.68
2022-12-24T20:31:27.057Z,18.63
2022-12-24T20:33:55.871Z,15.93
2022-12-24T20:36:23.646Z,15.98
2022-12-24T20:38:51.163Z,24.73
2022-12-24T20:41:20.203Z,15.98
2022-12-24T20:43:48.965Z,12.90
2022-12-24T20:46:18.397Z,13.95
2022-12-24T20:48:46.274Z,12.10
2022-12-24T20:51:25.616Z,15.32
2022-12-24T20:53:54.424Z,16.77
2022-12-24T20:56:22.779Z,16.48
2022-12-24T20:58:50.596Z,17.55
2022-12-24T21:01:27.097Z,15.48
2022-12-24T21:03:55.916Z,15.57
2022-12-24T21:06:24.372Z,11.63
2022-12-24T21:08:52.521Z,12.85
2022-12-24T21:11:39.010Z,19.35
2022-12-24T21:14:06.915Z,14.00
2022-12-24T21:16:35.849Z,12.95
2022-12-24T21:19:04.359Z,13.65
2022-12-24T21:21:32.329Z,12.15
2022-12-24T21:23:59.581Z,11.55
2022-12-24T21:26:26.905Z,11.10
2022-12-24T21:28:54.226Z,12.15
2022-12-24T21:31:22.014Z,14.77
2022-12-24T21:33:49.498Z,15.55
2022-12-24T21:36:17.462Z,12.52
2022-12-24T21:38:44.729Z,12.90
2022-12-24T21:41:14.692Z,12.35
2022-12-24T21:43:42.204Z,10.70
2022-12-24T21:46:11.649Z,12.20
2022-12-24T21:48:57.513Z,13.77
2022-12-24T21:51:26.668Z,12.23
2022-12-24T21:54:13.158Z,13.05
2022-12-24T21:56:59.643Z,17.10
2022-12-24T21:59:27.592Z,18.13
2022-12-24T22:01:56.591Z,16.88
2022-12-24T22:04:24.552Z,13.40
2022-12-24T22:07:10.407Z,14.80
2022-12-24T22:09:57.883Z,13.82
2022-12-24T22:12:28.565Z,16.10
2022-12-24T22:14:55.922Z,15.95
2022-12-24T22:17:25.795Z,13.00
2022-12-24T22:22:21.967Z,13.80
2022-12-24T22:24:49.488Z,14.48
2022-12-24T22:27:16.724Z,14.10
2022-12-24T22:29:44.028Z,14.10
2022-12-24T22:32:11.493Z,14.18
2022-12-24T22:34:38.927Z,13.70
2022-12-24T22:37:06.274Z,15.32
2022-12-24T22:39:33.651Z,14.30
2022-12-24T22:42:00.897Z,14.93
2022-12-24T22:44:28.731Z,20.92
2022-12-24T22:46:56.051Z,20.63
2022-12-24T22:49:23.342Z,16.08
2022-12-24T22:51:50.653Z,16.17
2022-12-24T22:54:18.233Z,15.05
2022-12-24T22:56:45.523Z,14.52
2022-12-24T22:59:13.969Z,13.98
2022-12-24T23:01:44.552Z,14.63
2022-12-24T23:04:12.819Z,14.43
2022-12-24T23:06:40.864Z,18.33
2022-12-24T23:09:09.765Z,13.82
2022-12-24T23:11:37.130Z,12.38
2022-12-24T23:14:22.993Z,16.05
2022-12-24T23:16:50.231Z,13.27
2022-12-24T23:19:17.595Z,13.75
2022-12-24T23:21:44.825Z,13.13
2022-12-24T23:24:12.200Z,12.52
2022-12-24T23:26:40.268Z,15.77
2022-12-24T23:29:07.687Z,14.98
2022-12-24T23:31:35.310Z,13.10
2022-12-24T23:34:02.613Z,14.27
2022-12-24T23:36:30.180Z,15.57
2022-12-24T23:38:57.718Z,15.18
2022-12-24T23:41:25.255Z,15.20
2022-12-24T23:43:52.567Z,14.73
2022-12-24T23:46:20.367Z,17.10
2022-12-24T23:48:48.255Z,16.63
2022-12-24T23:51:19.101Z,13.32
2022-12-24T23:53:46.474Z,12.80
2022-12-24T23:56:13.846Z,23.63
2022-12-24T23:58:42.117Z,26.90
